Taylor Fork

This weather station provides wind speed, gust or max wind speed, and wind direction at 9460 ft. near Pika Point above Sunlight Basin.  

This data can be used with temperature and precipitation data from the Carrot Basin SNOTEL site. If the data below is not displayed or up to date, view data here.

Elevation
9460ft
Jump to table bottom
Date Time Temperature
deg F
RH, % Wind Speed Wind Gust Wind Direction
01/23/22 02:00 25.0 67 6 12 NW - 303
01/23/22 01:00 25.7 68 5 10 W - 288
01/23/22 00:00 25.9 72 7 12 NW - 306
01/22/22 23:00 25.8 73 10 16 N - 347
01/22/22 22:00 25.0 76 10 15 N - 348
01/22/22 21:00 24.2 78 8 12 N - 345
01/22/22 20:00 22.7 84 10 14 N - 347
01/22/22 19:00 24.9 80 6 12 NW - 336
01/22/22 18:00 21.5 86 3 7 E - 77
01/22/22 17:00 23.2 82 4 12 NE - 27
01/22/22 16:00 24.2 80 8 12 N - 351
01/22/22 15:00 24.2 81 8 15 N - 355
01/22/22 14:00 23.8 82 8 14 N - 350
01/22/22 13:00 22.4 85 8 15 N - 357
01/22/22 12:00 20.2 94 6 10 N - 1
01/22/22 11:00 17.0 93 7 11 N - 348
01/22/22 10:00 14.6 93 6 14 N - 1
01/22/22 09:00 13.9 93 7 13 N - 4
01/22/22 08:00 13.4 93 9 16 N - 3
01/22/22 07:00 13.6 93 8 15 N - 1
01/22/22 06:00 13.0 93 11 19 N - 354
01/22/22 05:00 12.3 93 11 20 N - 358
01/22/22 04:00 12.4 90 9 18 N - 352
01/22/22 03:00 11.0 89 4 9 NW - 309
01/22/22 02:00 10.8 90 4 7 NW - 334
01/22/22 01:00 10.0 93 2 4 NE - 67
01/22/22 00:00 10.2 93 2 5 E - 88
01/21/22 23:00 11.0 89 2 4 W - 279
01/21/22 22:00 11.7 89 2 5 NW - 314
01/21/22 21:00 11.7 89 6 10 SW - 241
01/21/22 20:00 11.9 88 7 11 SW - 220
01/21/22 19:00 12.1 92 5 8 W - 251
01/21/22 18:00 12.9 90 6 9 W - 278
01/21/22 17:00 13.8 87 7 12 W - 289
01/21/22 16:00 16.6 75 8 15 NW - 323
01/21/22 15:00 15.9 76 10 16 NW - 336
01/21/22 14:00 16.5 81 7 14 NW - 331
01/21/22 13:00 16.2 86 8 16 N - 341
01/21/22 12:00 16.4 89 9 18 N - 354
01/21/22 11:00 14.9 92 7 17 N - 3
01/21/22 10:00 13.6 92 12 24 N - 352
01/21/22 09:00 13.5 91 15 26 N - 350
01/21/22 08:00 12.7 93 19 34 N - 347
01/21/22 07:00 13.7 93 18 34 N - 343
01/21/22 06:00 15.1 94 14 26 N - 338
01/21/22 05:00 15.7 93 19 32 N - 341
01/21/22 04:00 16.6 92 17 34 NW - 331
01/21/22 03:00 17.2 93 17 27 NW - 321
01/21/22 02:00 16.7 93 14 25 NW - 312
01/21/22 01:00 17.2 94 14 25 NW - 305